• pl
  • eng

Awiacja
TAF FC 04:30 20.10.2017
  • WIND
  • SIGNIFICANT EURO
  • SIGNIFICANT
  • SIGMET
  • AIRMET
  • TAF FC
  • TAF FT
  • METAR GG30
  • METAR GG00


TAF EPLB 200230Z 2003/2012 07005KT 7000 BKN015
PROB40 TEMPO 2003/2006 1500 BR BKN005=

TAF EPRA 200200Z NIL=

TAF EPSY 200200Z NIL=

TAF EPZG 200230Z 2003/2012 11003KT 0100 FG OVC001
PROB30 TEMPO 2003/2007 0300 FG
BECMG 2007/2009 4000 BR BKN006
BECMG 2009/2011 8000 NSC =
Awiacja.imgw.pl jest pogodowym serwisem informacyjnym
Instytutu Meteorologii i Gospodarki Wodnej Państwowego Instytutu Badawczego.
Copyright IMGW PIB 2009-2011© Wszelkie prawa zastrzeżone.